Time;durP1;ratioP1;P1;durP2;ratioP2;P2;SDS_P1;SDS_P2;PMS_P1;PMS_P2;Temp;Humidity;BMP_temperature;BMP_pressure;BME280_temperature;BME280_humidity;BME280_pressure;Samples;Min_cycle;Max_cycle;Signal;HPM_P1;HPM_P2
2022/04/19 00:00:07;;;;;;;;;;;;;;;4.34;100.00;95482.41;1030752;28;19973;-69
2022/04/19 00:00:38;;;;;;;;;;;;;;;4.41;100.00;95482.28;1028483;28;20420;-70
2022/04/19 00:01:09;;;;;;;;;;;;;;;4.41;100.00;95483.06;1035183;28;19921;-70
2022/04/19 00:01:42;;;;;;;;;;;;;;;4.40;100.00;95478.88;1022778;28;20491;-71
2022/04/19 00:02:12;;;;;;;;;;;;;;;4.39;100.00;95481.69;1019705;29;19915;-70
2022/04/19 00:02:43;;;;;;;;;;;;;;;4.40;100.00;95480.69;1023184;28;20455;-70
2022/04/19 00:03:14;;;;;;;;;;;;;;;4.46;100.00;95479.75;1015825;29;19923;-70
2022/04/19 00:03:45;;;;;;;;;;;;;;;4.44;100.00;95477.41;1019107;29;19969;-70
2022/04/19 00:04:16;;;;;;;;;;;;;;;4.43;100.00;95478.44;1019379;29;19998;-69
2022/04/19 00:04:47;;;;;;;;;;;;;;;4.40;100.00;95470.31;1019832;28;20017;-69
2022/04/19 00:05:17;;;;;;;;;;;;;;;4.40;100.00;95470.31;1027289;28;19928;-71
2022/04/19 00:05:47;;;;;;;;;;;;;;;4.37;100.00;95473.38;1030687;28;19976;-70
2022/04/19 00:06:18;;;;;;;;;;;;;;;4.31;100.00;95477.66;1027309;28;19922;-70
2022/04/19 00:06:51;;;;;;;;;;;;;;;4.31;100.00;95472.47;1026589;28;19961;-70
2022/04/19 00:07:21;;;;;;;;;;;;;;;4.28;100.00;95472.13;1020110;28;19981;-69
2022/04/19 00:07:51;;;;;;;;;;;;;;;4.24;100.00;95470.00;1022308;28;20431;-70
2022/04/19 00:08:22;;;;;;;;;;;;;;;4.29;100.00;95474.50;1027346;28;19957;-70
2022/04/19 00:08:52;;;;;;;;;;;;;;;4.24;100.00;95471.81;1025756;28;19928;-70
2022/04/19 00:09:22;;;;;;;;;;;;;;;4.24;100.00;95474.41;1027109;28;19925;-69
2022/04/19 00:09:53;;;;;;;;;;;;;;;4.24;100.00;95477.00;1026954;28;19918;-70
2022/04/19 00:10:23;;;;;;;;;;;;;;;4.22;100.00;95474.63;1022984;28;19950;-69
2022/04/19 00:10:53;;;;;;;;;;;;;;;4.18;100.00;95470.13;1026894;28;19973;-70
2022/04/19 00:11:26;;;;;;;;;;;;;;;4.18;100.00;95472.72;1026862;28;20395;-69
2022/04/19 00:11:57;;;;;;;;;;;;;;;4.25;100.00;95473.38;1023566;28;19929;-70
2022/04/19 00:12:27;;;;;;;;;;;;;;;4.32;100.00;95471.44;1026860;28;19949;-70
2022/04/19 00:12:58;;;;;;;;;;;;;;;4.34;100.00;95463.44;1023227;29;20316;-70
2022/04/19 00:13:28;;;;;;;;;;;;;;;4.32;100.00;95468.84;1023363;28;19926;-70
2022/04/19 00:13:59;;;;;;;;;;;;;;;4.27;100.00;95470.56;1028210;28;20392;-70
2022/04/19 00:14:29;;;;;;;;;;;;;;;4.29;100.00;95469.28;1027151;28;19973;-70
2022/04/19 00:14:59;;;;;;;;;;;;;;;4.23;100.00;95465.03;1031363;28;19926;-71
2022/04/19 00:15:30;;;;;;;;;;;;;;;4.21;100.00;95465.25;1031103;28;20037;-70
2022/04/19 00:16:00;;;;;;;;;;;;;;;4.22;100.00;95469.44;1026912;28;20008;-70
2022/04/19 00:16:30;;;;;;;;;;;;;;;4.25;100.00;95463.78;1031053;28;19922;-70
2022/04/19 00:17:01;;;;;;;;;;;;;;;4.26;100.00;95467.19;1030337;28;19921;-70
2022/04/19 00:17:34;;;;;;;;;;;;;;;4.28;100.00;95466.94;1024606;28;19926;-70
2022/04/19 00:18:05;;;;;;;;;;;;;;;4.29;100.00;95463.31;1022805;29;20049;-70
2022/04/19 00:18:35;;;;;;;;;;;;;;;4.27;100.00;95465.38;1019048;29;19949;-70
2022/04/19 00:19:06;;;;;;;;;;;;;;;4.27;100.00;95465.38;1019456;28;19934;-71
2022/04/19 00:19:36;;;;;;;;;;;;;;;4.25;100.00;95468.19;1019217;29;20344;-71
2022/04/19 00:20:06;;;;;;;;;;;;;;;4.27;100.00;95466.16;1015119;29;20018;-70
2022/04/19 00:20:39;;;;;;;;;;;;;;;4.31;100.00;95462.06;1015117;29;20480;-70
2022/04/19 00:21:09;;;;;;;;;;;;;;;4.27;100.00;95460.97;1015407;29;19967;-70
2022/04/19 00:21:39;;;;;;;;;;;;;;;4.23;100.00;95465.03;1015969;29;20539;-72
2022/04/19 00:22:10;;;;;;;;;;;;;;;4.16;100.00;95466.97;1019706;29;19965;-70
2022/04/19 00:22:41;;;;;;;;;;;;;;;4.11;100.00;95466.84;1023595;28;19923;-70
2022/04/19 00:23:15;;;;;;;;;;;;;;;4.06;100.00;95464.16;1027546;28;19926;-70
2022/04/19 00:23:46;;;;;;;;;;;;;;;4.06;100.00;95466.75;1027162;28;19924;-70
2022/04/19 00:24:16;;;;;;;;;;;;;;;4.08;100.00;95464.72;1028627;28;19922;-70
2022/04/19 00:24:46;;;;;;;;;;;;;;;4.09;100.00;95461.09;1027044;28;20239;-70
2022/04/19 00:25:17;;;;;;;;;;;;;;;4.07;100.00;95460.56;1026962;28;19928;-70
2022/04/19 00:25:47;;;;;;;;;;;;;;;4.02;100.00;95458.63;1026568;28;20198;-70
2022/04/19 00:26:18;;;;;;;;;;;;;;;3.99;100.00;95454.69;1022782;29;19927;-70
2022/04/19 00:26:48;;;;;;;;;;;;;;;4.04;100.00;95458.41;1026402;28;19917;-70
2022/04/19 00:27:18;;;;;;;;;;;;;;;4.06;100.00;95459.78;1027192;28;19922;-70
2022/04/19 00:27:49;;;;;;;;;;;;;;;4.06;100.00;95458.94;1022830;28;19931;-71
2022/04/19 00:28:20;;;;;;;;;;;;;;;4.01;100.00;95463.03;1023155;29;20413;-70
2022/04/19 00:28:50;;;;;;;;;;;;;;;4.00;100.00;95455.47;1023168;28;19918;-70
2022/04/19 00:29:20;;;;;;;;;;;;;;;4.04;100.00;95456.59;1026698;28;20359;-70
2022/04/19 00:29:53;;;;;;;;;;;;;;;4.02;100.00;95458.63;1023230;28;19955;-70
2022/04/19 00:30:24;;;;;;;;;;;;;;;3.97;100.00;95453.34;1018708;29;19966;-70
2022/04/19 00:30:54;;;;;;;;;;;;;;;3.96;100.00;95460.34;1015566;29;20445;-69
2022/04/19 00:31:24;;;;;;;;;;;;;;;4.00;100.00;95458.84;1019033;29;20229;-70
2022/04/19 00:31:55;;;;;;;;;;;;;;;3.99;100.00;95454.69;1015111;29;20378;-70
2022/04/19 00:32:25;;;;;;;;;;;;;;;4.01;100.00;95449.25;1019063;29;20404;-70
2022/04/19 00:32:55;;;;;;;;;;;;;;;3.97;100.00;95454.13;1029951;28;19918;-71
2022/04/19 00:33:27;;;;;;;;;;;;;;;3.96;100.00;95454.38;1022864;28;19969;-70
2022/04/19 00:33:58;;;;;;;;;;;;;;;4.03;100.00;95452.44;1027295;28;19950;-70
2022/04/19 00:34:28;;;;;;;;;;;;;;;4.04;100.00;95454.00;1026649;28;20319;-70
2022/04/19 00:34:59;;;;;;;;;;;;;;;4.08;100.00;95451.75;1027593;28;20180;-70
2022/04/19 00:35:32;;;;;;;;;;;;;;;4.07;100.00;95450.94;1034841;28;19913;-71
2022/04/19 00:36:03;;;;;;;;;;;;;;;4.01;100.00;95444.84;1030236;28;19914;-70
2022/04/19 00:36:33;;;;;;;;;;;;;;;3.97;100.00;95445.56;1023196;29;19911;-71
2022/04/19 00:37:03;;;;;;;;;;;;;;;4.07;100.00;95447.56;1018299;29;19915;-70
2022/04/19 00:37:34;;;;;;;;;;;;;;;4.08;100.00;95447.34;1015189;29;19922;-70
2022/04/19 00:38:05;;;;;;;;;;;;;;;4.07;100.00;95447.56;1011459;29;20275;-70
2022/04/19 00:38:35;;;;;;;;;;;;;;;4.05;100.00;95445.19;1015154;29;19911;-70
2022/04/19 00:39:05;;;;;;;;;;;;;;;4.04;100.00;95446.22;1018893;29;20001;-70
2022/04/19 00:39:36;;;;;;;;;;;;;;;3.99;100.00;95441.72;1023199;28;19933;-70
2022/04/19 00:40:07;;;;;;;;;;;;;;;4.00;100.00;95443.28;1027309;28;19914;-70
2022/04/19 00:40:37;;;;;;;;;;;;;;;4.00;100.00;95440.69;1023056;29;19911;-71
2022/04/19 00:41:08;;;;;;;;;;;;;;;4.05;100.00;95447.78;1023405;28;19914;-71
2022/04/19 00:41:38;;;;;;;;;;;;;;;4.00;100.00;95440.69;1026909;28;19918;-70
2022/04/19 00:42:09;;;;;;;;;;;;;;;3.97;100.00;95435.94;1027257;28;20004;-70
2022/04/19 00:42:39;;;;;;;;;;;;;;;3.98;100.00;95441.94;1027035;28;19925;-70
2022/04/19 00:43:12;;;;;;;;;;;;;;;3.96;100.00;95443.97;1026663;28;19945;-70
2022/04/19 00:43:43;;;;;;;;;;;;;;;3.97;100.00;95438.56;1026933;28;19919;-70
2022/04/19 00:44:13;;;;;;;;;;;;;;;3.95;100.00;95437.97;1026958;28;20396;-71
2022/04/19 00:44:43;;;;;;;;;;;;;;;4.00;100.00;95440.69;1029419;28;19922;-70
2022/04/19 00:45:14;;;;;;;;;;;;;;;4.01;100.00;95436.28;1030835;28;20417;-70
2022/04/19 00:45:44;;;;;;;;;;;;;;;4.01;100.00;95436.28;1030854;28;19929;-70
2022/04/19 00:46:14;;;;;;;;;;;;;;;3.99;100.00;95439.13;1026982;28;19973;-70
2022/04/19 00:46:45;;;;;;;;;;;;;;;3.96;100.00;95439.56;1014443;29;19919;-70
2022/04/19 00:47:15;;;;;;;;;;;;;;;3.97;100.00;95438.56;1014932;29;19993;-71
2022/04/19 00:47:45;;;;;;;;;;;;;;;4.10;100.00;95428.94;1015146;29;19911;-70
2022/04/19 00:48:16;;;;;;;;;;;;;;;4.10;100.00;95432.31;1018394;29;19958;-70
2022/04/19 00:48:46;;;;;;;;;;;;;;;4.09;100.00;95429.94;1031029;28;20005;-70
2022/04/19 00:49:19;;;;;;;;;;;;;;;4.09;100.00;95427.34;1030850;28;20052;-72
2022/04/19 00:49:50;;;;;;;;;;;;;;;4.10;100.00;95434.13;1030732;28;19910;-70
2022/04/19 00:50:20;;;;;;;;;;;;;;;4.17;100.00;95425.19;1027237;28;20403;-71
2022/04/19 00:50:50;;;;;;;;;;;;;;;4.17;100.00;95427.78;1022976;29;20025;-69
2022/04/19 00:51:21;;;;;;;;;;;;;;;4.17;100.00;95424.41;1019590;28;19922;-70
2022/04/19 00:51:56;;;;;;;;;;;;;;;4.18;100.00;95416.38;1017694;29;19915;-71
2022/04/19 00:52:26;;;;;;;;;;;;;;;4.12;100.00;95424.28;1023537;28;19921;-70
2022/04/19 00:52:56;;;;;;;;;;;;;;;4.07;100.00;95424.22;1023458;28;19926;-70
2022/04/19 00:53:27;;;;;;;;;;;;;;;4.01;100.00;95426.69;1023407;28;19938;-70
2022/04/19 00:53:57;;;;;;;;;;;;;;;4.04;100.00;95416.88;1023085;29;19950;-70
2022/04/19 00:54:27;;;;;;;;;;;;;;;4.01;100.00;95421.50;1019269;29;20391;-70
2022/04/19 00:54:58;;;;;;;;;;;;;;;4.07;100.00;95416.41;1011566;29;19927;-71
2022/04/19 00:55:29;;;;;;;;;;;;;;;4.11;100.00;95420.13;1015075;29;20402;-70
2022/04/19 00:55:59;;;;;;;;;;;;;;;4.06;100.00;95417.41;1019286;29;20077;-71
2022/04/19 00:56:30;;;;;;;;;;;;;;;4.03;100.00;95423.09;1023328;28;19910;-70
2022/04/19 00:57:00;;;;;;;;;;;;;;;3.98;100.00;95416.75;1034741;28;19918;-70
2022/04/19 00:57:34;;;;;;;;;;;;;;;4.02;100.00;95417.09;1030797;28;20352;-71
2022/04/19 00:58:06;;;;;;;;;;;;;;;4.03;100.00;95415.31;1026890;28;19941;-70
2022/04/19 00:58:36;;;;;;;;;;;;;;;4.01;100.00;95418.13;1027079;28;19918;-70
2022/04/19 00:59:10;;;;;;;;;;;;;;;4.00;100.00;95408.75;1023629;28;19937;-71
2022/04/19 00:59:44;;;;;;;;;;;;;;;4.06;100.00;95418.22;1023719;28;20364;-69
2022/04/19 01:00:14;;;;;;;;;;;;;;;4.03;100.00;95408.31;1023106;29;20451;-71
2022/04/19 01:00:48;;;;;;;;;;;;;;;4.03;100.00;95408.31;1021834;28;19923;-70
2022/04/19 01:01:24;;;;;;;;;;;;;;;4.07;100.00;95411.22;1020561;29;20023;-70
2022/04/19 01:01:54;;;;;;;;;;;;;;;4.15;100.00;95410.84;1022612;28;19928;-70
2022/04/19 01:02:24;;;;;;;;;;;;;;;4.09;100.00;95412.59;1024266;28;19930;-70
2022/04/19 01:02:55;;;;;;;;;;;;;;;4.11;100.00;95404.56;1028164;28;20354;-70
2022/04/19 01:03:25;;;;;;;;;;;;;;;4.06;100.00;95412.22;1028812;28;19917;-71
2022/04/19 01:03:58;;;;;;;;;;;;;;;4.06;100.00;95404.44;1030384;28;19914;-70
2022/04/19 01:04:28;;;;;;;;;;;;;;;4.07;100.00;95403.44;1026936;28;19941;-70
2022/04/19 01:05:00;;;;;;;;;;;;;;;4.09;100.00;95403.97;1021826;28;20652;-71
2022/04/19 01:05:33;;;;;;;;;;;;;;;4.07;100.00;95406.03;1020511;28;19978;-70
2022/04/19 01:06:06;;;;;;;;;;;;;;;4.12;100.00;95413.91;1019344;29;19966;-70
2022/04/19 01:06:37;;;;;;;;;;;;;;;4.13;100.00;95397.34;1019214;29;20309;-70
2022/04/19 01:07:07;;;;;;;;;;;;;;;4.19;100.00;95406.78;1019080;29;19915;-70
2022/04/19 01:07:37;;;;;;;;;;;;;;;4.21;100.00;95399.56;1024259;28;19911;-70
2022/04/19 01:08:07;;;;;;;;;;;;;;;4.20;100.00;95403.19;1027047;28;19903;-69
2022/04/19 01:08:38;;;;;;;;;;;;;;;4.16;100.00;95396.88;1031145;28;19906;-70
2022/04/19 01:09:08;;;;;;;;;;;;;;;4.12;100.00;95387.94;1026842;28;19906;-70
2022/04/19 01:09:39;;;;;;;;;;;;;;;4.15;100.00;95393.47;1023323;29;20745;-70
2022/04/19 01:10:09;;;;;;;;;;;;;;;4.13;100.00;95389.53;1026879;28;19915;-69
2022/04/19 01:10:40;;;;;;;;;;;;;;;4.12;100.00;95395.72;1018456;29;19937;-70
2022/04/19 01:13:36;;;;;;;;;;;;;;;4.03;100.00;95391.94;1020630;28;19917;-70
2022/04/19 01:14:07;;;;;;;;;;;;;;;4.00;100.00;95390.59;1021176;28;19910;-70
2022/04/19 01:14:37;;;;;;;;;;;;;;;4.04;100.00;95390.91;1023811;28;20663;-70
2022/04/19 01:15:08;;;;;;;;;;;;;;;3.97;100.00;95397.00;1029759;28;20001;-70
2022/04/19 01:15:41;;;;;;;;;;;;;;;3.96;100.00;95392.06;1029863;28;20032;-69
2022/04/19 01:16:11;;;;;;;;;;;;;;;3.92;100.00;95391.75;1027128;28;20446;-71
2022/04/19 01:16:41;;;;;;;;;;;;;;;3.60;100.00;95341.25;1022407;29;19914;-68
2022/04/19 01:17:13;;;;;;;;;;;;;;;3.96;100.00;95392.84;1022815;29;19955;-71
2022/04/19 01:17:43;;;;;;;;;;;;;;;4.03;100.00;95386.75;1023051;29;20146;-69
2022/04/19 01:18:13;;;;;;;;;;;;;;;3.99;100.00;95387.22;1022883;29;19910;-71
2022/04/19 01:18:44;;;;;;;;;;;;;;;3.98;100.00;95388.19;1014864;29;19912;-70
2022/04/19 01:19:17;;;;;;;;;;;;;;;3.98;100.00;95382.22;1017788;29;19915;-70
2022/04/19 01:19:47;;;;;;;;;;;;;;;4.01;100.00;95384.38;1022801;29;19914;-70
2022/04/19 01:20:18;;;;;;;;;;;;;;;4.03;100.00;95386.75;1027199;28;19921;-70
2022/04/19 01:20:49;;;;;;;;;;;;;;;4.05;100.00;95392.47;1024119;28;19958;-70
2022/04/19 01:21:19;;;;;;;;;;;;;;;4.00;100.00;95388.78;1027044;28;20295;-70
2022/04/19 01:21:57;;;;;;;;;;;;;;;4.00;100.00;95386.19;1019051;29;20324;-70
2022/04/19 01:22:27;;;;;;;;;;;;;;;3.98;100.00;95393.41;1018670;29;19903;-70
2022/04/19 01:22:57;;;;;;;;;;;;;;;3.95;100.00;95391.25;1019139;29;19911;-71
2022/04/19 01:23:28;;;;;;;;;;;;;;;3.95;100.00;95393.84;1019576;29;19977;-70
2022/04/19 01:23:59;;;;;;;;;;;;;;;3.95;100.00;95391.25;1025026;28;19951;-71
2022/04/19 01:24:29;;;;;;;;;;;;;;;3.94;100.00;95394.09;1032075;28;19918;-70
2022/04/19 01:25:00;;;;;;;;;;;;;;;3.92;100.00;95390.91;1028366;28;19953;-70
2022/04/19 01:25:30;;;;;;;;;;;;;;;3.90;100.00;95388.56;1032555;28;20406;-70
2022/04/19 01:26:00;;;;;;;;;;;;;;;3.91;100.00;95386.75;1028117;28;19945;-70
2022/04/19 01:26:31;;;;;;;;;;;;;;;3.93;100.00;95392.53;1023589;29;19964;-71
2022/04/19 01:27:01;;;;;;;;;;;;;;;3.91;100.00;95386.75;1026220;28;20404;-71
2022/04/19 01:27:31;;;;;;;;;;;;;;;3.89;100.00;95387.00;1022043;28;19925;-70
2022/04/19 01:28:02;;;;;;;;;;;;;;;3.89;100.00;95384.41;1018977;29;19921;-70
2022/04/19 01:28:32;;;;;;;;;;;;;;;3.88;100.00;95388.00;1019043;29;19915;-70
2022/04/19 01:29:02;;;;;;;;;;;;;;;3.86;100.00;95392.66;1018804;29;19919;-70
2022/04/19 01:29:33;;;;;;;;;;;;;;;3.82;100.00;95386.31;1026325;28;20387;-70
2022/04/19 01:30:05;;;;;;;;;;;;;;;3.82;100.00;95383.72;1019177;29;19918;-71
2022/04/19 01:30:35;;;;;;;;;;;;;;;3.85;100.00;95385.84;1023260;28;19918;-70
2022/04/19 01:31:06;;;;;;;;;;;;;;;3.85;100.00;95390.25;1024994;28;19914;-70
2022/04/19 01:31:36;;;;;;;;;;;;;;;3.87;100.00;95389.03;1019087;29;19962;-71
2022/04/19 01:32:09;;;;;;;;;;;;;;;3.86;100.00;95391.88;1019063;29;20270;-70
2022/04/19 01:32:40;;;;;;;;;;;;;;;3.87;100.00;95386.44;1019489;29;19914;-71
2022/04/19 01:33:10;;;;;;;;;;;;;;;3.90;100.00;95388.56;1019788;28;20388;-71
2022/04/19 01:33:46;;;;;;;;;;;;;;;3.83;100.00;95382.72;1019234;29;19907;-71
2022/04/19 01:34:17;;;;;;;;;;;;;;;3.83;100.00;95385.31;1022948;28;20014;-70
2022/04/19 01:34:47;;;;;;;;;;;;;;;3.82;100.00;95383.72;1019532;29;20396;-69
2022/04/19 01:35:18;;;;;;;;;;;;;;;3.79;100.00;95381.59;1023017;29;20005;-70
2022/04/19 01:35:48;;;;;;;;;;;;;;;3.78;100.00;95385.19;1022500;28;19973;-71
2022/04/19 01:36:19;;;;;;;;;;;;;;;3.77;100.00;95388.81;1025967;28;19917;-71
2022/04/19 01:36:49;;;;;;;;;;;;;;;3.81;100.00;95389.94;1030350;28;19913;-70
2022/04/19 01:37:19;;;;;;;;;;;;;;;3.80;100.00;95383.19;1026597;28;19909;-71
2022/04/19 01:37:50;;;;;;;;;;;;;;;3.78;100.00;95374.81;1021220;28;20347;-70
2022/04/19 01:38:23;;;;;;;;;;;;;;;3.78;100.00;95374.81;1011129;29;19923;-69
2022/04/19 01:38:56;;;;;;;;;;;;;;;3.81;100.00;95379.56;1015409;29;19911;-70
2022/04/19 01:40:18;;;;;;;;;;;;;;;3.77;100.00;95375.84;1029311;28;20009;-71
2022/04/19 01:40:51;;;;;;;;;;;;;;;3.80;100.00;95372.78;1026881;28;19992;-70
2022/04/19 01:41:22;;;;;;;;;;;;;;;3.77;100.00;95378.44;1027243;28;19970;-70
2022/04/19 01:41:55;;;;;;;;;;;;;;;3.76;100.00;95376.88;1026783;28;20383;-70
2022/04/19 01:42:25;;;;;;;;;;;;;;;3.78;100.00;95374.81;1028135;28;19915;-70
2022/04/19 01:42:59;;;;;;;;;;;;;;;3.76;100.00;95374.28;1028234;28;19907;-70
2022/04/19 01:43:30;;;;;;;;;;;;;;;3.66;100.00;95361.88;1022763;29;19910;-70
2022/04/19 01:44:00;;;;;;;;;;;;;;;3.75;100.00;95375.28;1018835;29;19919;-70
2022/04/19 01:44:33;;;;;;;;;;;;;;;3.77;100.00;95378.44;1018680;29;19926;-70
2022/04/19 01:45:04;;;;;;;;;;;;;;;3.75;100.00;95376.06;1016021;29;19923;-70
2022/04/19 01:45:34;;;;;;;;;;;;;;;3.77;100.00;95373.25;1019317;29;19994;-71
2022/04/19 01:46:08;;;;;;;;;;;;;;;3.73;100.00;95374.72;1019185;29;20022;-70
2022/04/19 01:46:39;;;;;;;;;;;;;;;3.70;100.00;95375.19;1019344;29;19921;-70
2022/04/19 01:47:10;;;;;;;;;;;;;;;3.70;100.00;95370.78;1022806;29;20474;-70
2022/04/19 01:47:41;;;;;;;;;;;;;;;3.64;100.00;95368.31;1019373;29;19981;-70
2022/04/19 01:48:11;;;;;;;;;;;;;;;3.61;100.00;95371.34;1022757;28;19926;-70
2022/04/19 01:48:44;;;;;;;;;;;;;;;3.62;100.00;95371.13;1022925;28;19919;-70
2022/04/19 01:49:14;;;;;;;;;;;;;;;3.60;100.00;95374.97;1023314;28;20675;-70
2022/04/19 01:49:45;;;;;;;;;;;;;;;3.59;100.00;95371.59;1026497;28;19972;-70
2022/04/19 01:50:16;;;;;;;;;;;;;;;3.56;100.00;95369.44;1023016;29;19918;-71
2022/04/19 01:50:46;;;;;;;;;;;;;;;3.52;100.00;95366.53;1022925;28;19915;-70
2022/04/19 01:51:17;;;;;;;;;;;;;;;3.52;100.00;95370.91;1026755;28;19949;-70
2022/04/19 01:51:47;;;;;;;;;;;;;;;3.48;100.00;95365.38;1022779;29;19922;-71
2022/04/19 01:52:17;;;;;;;;;;;;;;;3.45;100.00;95365.81;1028645;28;19968;-70
2022/04/19 01:52:48;;;;;;;;;;;;;;;3.43;100.00;95369.69;1030732;28;20292;-71
2022/04/19 01:53:19;;;;;;;;;;;;;;;3.44;100.00;95366.06;1027822;28;19914;-71
2022/04/19 01:53:49;;;;;;;;;;;;;;;3.40;100.00;95363.13;1026454;28;19950;-71
2022/04/19 01:54:19;;;;;;;;;;;;;;;3.44;100.00;95366.84;1023028;28;19914;-71
2022/04/19 01:54:51;;;;;;;;;;;;;;;3.41;100.00;95364.69;1025730;28;20335;-71
2022/04/19 01:55:21;;;;;;;;;;;;;;;3.40;100.00;95365.72;1018506;29;19958;-69
2022/04/19 01:55:52;;;;;;;;;;;;;;;3.43;100.00;95367.88;1018758;29;20317;-69
2022/04/19 01:56:22;;;;;;;;;;;;;;;3.50;100.00;95368.53;1019597;28;20392;-70
2022/04/19 01:56:53;;;;;;;;;;;;;;;3.47;100.00;95363.81;1026932;28;19914;-69
2022/04/19 01:57:25;;;;;;;;;;;;;;;3.49;100.00;95366.97;1031424;28;20363;-71
2022/04/19 01:57:56;;;;;;;;;;;;;;;3.43;100.00;95367.88;1031281;28;19914;-70
2022/04/19 01:58:26;;;;;;;;;;;;;;;3.43;100.00;95367.09;1027148;28;19914;-70
2022/04/19 01:58:56;;;;;;;;;;;;;;;3.41;100.00;95362.13;1027419;28;19925;-71
2022/04/19 01:59:27;;;;;;;;;;;;;;;3.39;100.00;95366.75;1027569;28;19917;-69
2022/04/19 01:59:57;;;;;;;;;;;;;;;3.43;100.00;95364.50;1027550;28;20336;-70
2022/04/19 02:00:30;;;;;;;;;;;;;;;3.41;100.00;95363.91;1035599;28;20376;-71
2022/04/19 02:01:01;;;;;;;;;;;;;;;3.47;100.00;95366.41;1031836;28;19910;-70
2022/04/19 02:01:31;;;;;;;;;;;;;;;3.48;100.00;95365.38;1031103;28;19921;-70
2022/04/19 02:02:01;;;;;;;;;;;;;;;3.52;100.00;95369.13;1027745;28;19952;-71
2022/04/19 02:02:32;;;;;;;;;;;;;;;3.55;100.00;95370.44;1027983;28;20447;-70
2022/04/19 02:03:03;;;;;;;;;;;;;;;3.56;100.00;95364.25;1027467;28;20311;-70
2022/04/19 02:03:34;;;;;;;;;;;;;;;3.51;100.00;95361.53;1023295;28;19918;-70
2022/04/19 02:04:04;;;;;;;;;;;;;;;3.54;100.00;95363.69;1019529;29;19918;-70
2022/04/19 02:04:35;;;;;;;;;;;;;;;3.51;100.00;95364.13;1019850;29;19922;-70
2022/04/19 02:05:05;;;;;;;;;;;;;;;3.49;100.00;95366.97;1025430;28;19923;-69
2022/04/19 02:05:35;;;;;;;;;;;;;;;3.45;100.00;95365.03;1027723;28;19925;-70
2022/04/19 02:06:07;;;;;;;;;;;;;;;3.42;100.00;95363.72;1027546;28;19925;-70
2022/04/19 02:06:39;;;;;;;;;;;;;;;3.44;100.00;95358.28;1027675;28;19910;-70
2022/04/19 02:07:09;;;;;;;;;;;;;;;3.50;100.00;95360.75;1022199;29;19922;-70
2022/04/19 02:07:40;;;;;;;;;;;;;;;3.47;100.00;95358.63;1023941;28;19922;-70
2022/04/19 02:08:13;;;;;;;;;;;;;;;3.46;100.00;95354.47;1019819;29;19992;-70
2022/04/19 02:08:43;;;;;;;;;;;;;;;3.45;100.00;95355.44;1020098;28;19926;-70
2022/04/19 02:09:14;;;;;;;;;;;;;;;3.46;100.00;95349.25;1023451;28;20506;-70
2022/04/19 02:09:44;;;;;;;;;;;;;;;3.44;100.00;95358.28;1024452;28;20396;-70
2022/04/19 02:10:15;;;;;;;;;;;;;;;3.46;100.00;95354.47;1031777;28;19921;-70
2022/04/19 02:10:46;;;;;;;;;;;;;;;3.43;100.00;95352.31;1024792;28;19937;-71
2022/04/19 02:11:16;;;;;;;;;;;;;;;3.42;100.00;95353.34;1023599;29;20448;-71
2022/04/19 02:11:46;;;;;;;;;;;;;;;3.52;100.00;95350.97;1019437;29;19918;-70
2022/04/19 02:12:16;;;;;;;;;;;;;;;3.51;100.00;95349.34;1020953;28;19927;-71
2022/04/19 02:12:47;;;;;;;;;;;;;;;3.52;100.00;95348.38;1027441;28;19946;-70
2022/04/19 02:13:18;;;;;;;;;;;;;;;3.51;100.00;95351.94;1031523;28;20371;-70
2022/04/19 02:13:48;;;;;;;;;;;;;;;3.50;100.00;95350.38;1032069;28;20454;-71
2022/04/19 02:14:18;;;;;;;;;;;;;;;3.51;100.00;95358.94;1027782;28;20307;-70
2022/04/19 02:14:49;;;;;;;;;;;;;;;3.51;100.00;95353.75;1027714;28;20000;-71
2022/04/19 02:15:19;;;;;;;;;;;;;;;3.47;100.00;95353.44;1027517;28;19925;-70
2022/04/19 02:15:49;;;;;;;;;;;;;;;3.45;100.00;95352.84;1027434;28;19945;-70
2022/04/19 02:16:22;;;;;;;;;;;;;;;3.47;100.00;95350.06;1023578;28;20017;-69
2022/04/19 02:16:53;;;;;;;;;;;;;;;3.46;100.00;95351.88;1026702;28;19928;-69
2022/04/19 02:17:24;;;;;;;;;;;;;;;3.45;100.00;95355.44;1024696;28;20028;-70
2022/04/19 02:17:54;;;;;;;;;;;;;;;3.45;100.00;95350.25;1028257;28;19922;-69
2022/04/19 02:18:25;;;;;;;;;;;;;;;3.50;100.00;95352.19;1031427;28;19918;-72
2022/04/19 02:18:55;;;;;;;;;;;;;;;3.47;100.00;95352.66;1027529;28;19910;-70
2022/04/19 02:19:26;;;;;;;;;;;;;;;3.47;100.00;95350.84;1031320;28;19921;-70
2022/04/19 02:20:04;;;;;;;;;;;;;;;3.44;100.00;95356.47;1031584;28;20080;-70
2022/04/19 02:20:34;;;;;;;;;;;;;;;3.42;100.00;95352.53;1032754;28;20004;-70
2022/04/19 02:21:04;;;;;;;;;;;;;;;3.36;100.00;95349.06;1027468;28;20220;-71
2022/04/19 02:21:35;;;;;;;;;;;;;;;3.40;100.00;95352.75;1023531;29;20300;-71
2022/04/19 02:22:06;;;;;;;;;;;;;;;3.36;100.00;95359.41;1023405;29;19922;-70
2022/04/19 02:22:39;;;;;;;;;;;;;;;3.44;100.00;95359.06;1023593;28;20348;-70
2022/04/19 02:23:09;;;;;;;;;;;;;;;3.51;100.00;95356.34;1024124;28;19918;-70
2022/04/19 02:23:40;;;;;;;;;;;;;;;3.50;100.00;95352.19;1018958;29;20408;-70
2022/04/19 02:24:10;;;;;;;;;;;;;;;3.46;100.00;95351.88;1013303;29;19920;-70
2022/04/19 02:24:40;;;;;;;;;;;;;;;3.50;100.00;95354.78;1016065;29;19919;-71
2022/04/19 02:25:14;;;;;;;;;;;;;;;3.45;100.00;95357.25;1023479;29;19945;-71
2022/04/19 02:25:46;;;;;;;;;;;;;;;3.45;100.00;95355.44;1024044;28;20028;-70
2022/04/19 02:26:23;;;;;;;;;;;;;;;3.44;100.00;95359.06;1027621;28;20013;-71
2022/04/19 02:26:54;;;;;;;;;;;;;;;3.47;100.00;95357.84;1022844;29;19979;-70
2022/04/19 02:27:25;;;;;;;;;;;;;;;3.56;100.00;95355.69;1024774;28;20083;-70
2022/04/19 02:27:56;;;;;;;;;;;;;;;3.65;100.00;95359.50;1028575;28;20392;-70
2022/04/19 02:28:26;;;;;;;;;;;;;;;3.57;100.00;95352.06;1027781;28;19910;-70
2022/04/19 02:28:58;;;;;;;;;;;;;;;3.64;100.00;95355.34;1027477;28;19910;-70
2022/04/19 02:29:28;;;;;;;;;;;;;;;3.63;100.00;95357.13;1024767;28;20025;-71
2022/04/19 02:29:59;;;;;;;;;;;;;;;3.61;100.00;95353.19;1024052;28;19911;-69
2022/04/19 02:30:30;;;;;;;;;;;;;;;3.56;100.00;95359.06;1023571;29;20267;-70
2022/04/19 02:31:00;;;;;;;;;;;;;;;3.53;100.00;95352.53;1024683;28;19919;-70
2022/04/19 02:31:30;;;;;;;;;;;;;;;3.58;100.00;95351.06;1027492;28;19968;-70
2022/04/19 02:32:01;;;;;;;;;;;;;;;3.58;100.00;95353.66;1031269;28;19914;-70
2022/04/19 02:32:31;;;;;;;;;;;;;;;3.51;100.00;95349.34;1031732;28;19918;-70
2022/04/19 02:33:02;;;;;;;;;;;;;;;3.54;100.00;95348.91;1023461;29;19917;-70
2022/04/19 02:33:32;;;;;;;;;;;;;;;3.48;100.00;95349.81;1019369;29;19915;-71
2022/04/19 02:34:03;;;;;;;;;;;;;;;3.44;100.00;95350.50;1019652;29;19931;-71
2022/04/19 02:34:34;;;;;;;;;;;;;;;3.40;100.00;95351.97;1019595;28;19926;-70
2022/04/19 02:35:04;;;;;;;;;;;;;;;3.38;100.00;95352.19;1023611;28;19933;-70
2022/04/19 02:35:34;;;;;;;;;;;;;;;3.35;100.00;95355.22;1023612;29;19915;-71
2022/04/19 02:36:04;;;;;;;;;;;;;;;3.31;100.00;95351.53;1023157;28;20391;-70
2022/04/19 02:36:35;;;;;;;;;;;;;;;3.26;100.00;95351.44;1015495;29;19911;-71
2022/04/19 02:37:05;;;;;;;;;;;;;;;3.23;100.00;95357.06;1019048;29;19921;-70
2022/04/19 02:37:35;;;;;;;;;;;;;;;3.18;100.00;95349.16;1019373;29;19918;-71
2022/04/19 02:38:06;;;;;;;;;;;;;;;3.13;100.00;95352.44;1015563;29;20394;-71
2022/04/19 02:38:37;;;;;;;;;;;;;;;3.15;100.00;95357.38;1019610;29;19923;-70
2022/04/19 02:39:07;;;;;;;;;;;;;;;3.10;100.00;95358.06;1019452;29;20405;-71
2022/04/19 02:39:37;;;;;;;;;;;;;;;3.09;100.00;95355.72;1021849;28;19911;-70
2022/04/19 02:40:08;;;;;;;;;;;;;;;3.07;100.00;95359.28;1023554;28;19915;-71
2022/04/19 02:40:38;;;;;;;;;;;;;;;3.09;100.00;95358.28;1023389;28;20424;-71
2022/04/19 02:41:08;;;;;;;;;;;;;;;3.04;100.00;95364.13;1026663;28;19942;-71
2022/04/19 02:41:39;;;;;;;;;;;;;;;3.02;100.00;95361.78;1023381;29;19962;-71
2022/04/19 02:42:09;;;;;;;;;;;;;;;3.01;100.00;95359.41;1019684;29;19933;-69
2022/04/19 02:42:39;;;;;;;;;;;;;;;2.96;100.00;95359.28;1023411;29;19981;-70
2022/04/19 02:43:11;;;;;;;;;;;;;;;2.92;100.00;95360.72;1026777;28;19949;-70
2022/04/19 02:43:41;;;;;;;;;;;;;;;2.90;100.00;95358.38;1027381;28;19906;-70
2022/04/19 02:44:11;;;;;;;;;;;;;;;2.86;100.00;95357.25;1023692;28;19919;-70